sensor_id;sensor_type;location;lat;lon;timestamp;pressure;altitude;pressure_sealevel;temperature;humidity
15195;BME280;7698;42.478;23.756;2022-07-22T00:00:18;93523.19;;;18.40;82.61
15195;BME280;7698;42.478;23.756;2022-07-22T00:02:45;93520.22;;;18.41;82.90
15195;BME280;7698;42.478;23.756;2022-07-22T00:05:12;93518.06;;;18.38;82.94
15195;BME280;7698;42.478;23.756;2022-07-22T00:07:40;93517.03;;;18.34;82.31
15195;BME280;7698;42.478;23.756;2022-07-22T00:10:09;93527.91;;;18.29;81.90
15195;BME280;7698;42.478;23.756;2022-07-22T00:12:37;93529.03;;;18.23;81.92
15195;BME280;7698;42.478;23.756;2022-07-22T00:15:05;93526.91;;;18.15;81.45
15195;BME280;7698;42.478;23.756;2022-07-22T00:17:32;93535.13;;;18.00;82.97
15195;BME280;7698;42.478;23.756;2022-07-22T00:20:02;93535.78;;;17.76;84.32
15195;BME280;7698;42.478;23.756;2022-07-22T00:22:30;93540.13;;;17.62;85.81
15195;BME280;7698;42.478;23.756;2022-07-22T00:24:58;93534.53;;;17.48;86.80
15195;BME280;7698;42.478;23.756;2022-07-22T00:27:25;93531.34;;;17.36;88.00
15195;BME280;7698;42.478;23.756;2022-07-22T00:29:52;93529.47;;;17.26;89.29
15195;BME280;7698;42.478;23.756;2022-07-22T00:32:19;93540.03;;;17.18;89.85
15195;BME280;7698;42.478;23.756;2022-07-22T00:34:46;93526.28;;;17.14;90.91
15195;BME280;7698;42.478;23.756;2022-07-22T00:37:13;93531.69;;;17.09;91.49
15195;BME280;7698;42.478;23.756;2022-07-22T00:39:40;93533.31;;;17.05;92.37
15195;BME280;7698;42.478;23.756;2022-07-22T00:42:08;93536.28;;;16.99;92.88
15195;BME280;7698;42.478;23.756;2022-07-22T00:44:35;93536.06;;;16.95;93.44
15195;BME280;7698;42.478;23.756;2022-07-22T00:47:02;93535.25;;;16.89;93.24
15195;BME280;7698;42.478;23.756;2022-07-22T00:49:29;93527.97;;;16.85;93.91
15195;BME280;7698;42.478;23.756;2022-07-22T00:51:56;93531.19;;;16.82;93.61
15195;BME280;7698;42.478;23.756;2022-07-22T00:54:23;93527.97;;;16.80;94.14
15195;BME280;7698;42.478;23.756;2022-07-22T00:56:50;93526.34;;;16.79;94.83
15195;BME280;7698;42.478;23.756;2022-07-22T00:59:18;93527.69;;;16.76;94.71
15195;BME280;7698;42.478;23.756;2022-07-22T01:01:45;93525.28;;;16.75;95.36
15195;BME280;7698;42.478;23.756;2022-07-22T01:04:12;93523.13;;;16.77;95.25
15195;BME280;7698;42.478;23.756;2022-07-22T01:06:39;93521.50;;;16.81;95.12
15195;BME280;7698;42.478;23.756;2022-07-22T01:09:10;93524.72;;;16.78;94.79
15195;BME280;7698;42.478;23.756;2022-07-22T01:11:37;93526.91;;;16.76;95.31
15195;BME280;7698;42.478;23.756;2022-07-22T01:14:04;93528.50;;;16.77;95.49
15195;BME280;7698;42.478;23.756;2022-07-22T01:16:32;93525.53;;;16.73;95.07
15195;BME280;7698;42.478;23.756;2022-07-22T01:18:59;93525.00;;;16.71;95.45
15195;BME280;7698;42.478;23.756;2022-07-22T01:21:27;93524.78;;;16.68;95.64
15195;BME280;7698;42.478;23.756;2022-07-22T01:23:54;93525.81;;;16.62;96.03
15195;BME280;7698;42.478;23.756;2022-07-22T01:26:21;93515.03;;;16.56;96.34
15195;BME280;7698;42.478;23.756;2022-07-22T01:28:48;93518.81;;;16.55;96.76
15195;BME280;7698;42.478;23.756;2022-07-22T01:31:15;93520.41;;;16.56;96.90
15195;BME280;7698;42.478;23.756;2022-07-22T01:33:42;93508.56;;;16.57;97.14
15195;BME280;7698;42.478;23.756;2022-07-22T01:36:09;93516.09;;;16.61;97.31
15195;BME280;7698;42.478;23.756;2022-07-22T01:38:38;93511.81;;;16.65;96.97
15195;BME280;7698;42.478;23.756;2022-07-22T01:41:05;93516.38;;;16.69;96.60
15195;BME280;7698;42.478;23.756;2022-07-22T01:43:32;93511.25;;;16.73;96.04
15195;BME280;7698;42.478;23.756;2022-07-22T01:45:59;93512.06;;;16.73;95.35
15195;BME280;7698;42.478;23.756;2022-07-22T01:48:26;93512.06;;;16.73;95.00
15195;BME280;7698;42.478;23.756;2022-07-22T01:50:53;93505.31;;;16.76;94.94
15195;BME280;7698;42.478;23.756;2022-07-22T01:53:20;93511.78;;;16.75;94.40
15195;BME280;7698;42.478;23.756;2022-07-22T01:55:48;93507.22;;;16.75;95.11
15195;BME280;7698;42.478;23.756;2022-07-22T01:58:15;93507.47;;;16.74;95.12
15195;BME280;7698;42.478;23.756;2022-07-22T02:00:42;93504.50;;;16.70;95.66
15195;BME280;7698;42.478;23.756;2022-07-22T02:03:09;93513.44;;;16.66;95.56
15195;BME280;7698;42.478;23.756;2022-07-22T02:05:37;93517.19;;;16.59;96.31
15195;BME280;7698;42.478;23.756;2022-07-22T02:08:06;93527.97;;;16.59;96.86
15195;BME280;7698;42.478;23.756;2022-07-22T02:10:34;93519.34;;;16.57;97.04
15195;BME280;7698;42.478;23.756;2022-07-22T02:13:03;93524.47;;;16.54;96.71
15195;BME280;7698;42.478;23.756;2022-07-22T02:15:30;93517.19;;;16.44;96.50
15195;BME280;7698;42.478;23.756;2022-07-22T02:17:57;93517.75;;;16.36;97.27
15195;BME280;7698;42.478;23.756;2022-07-22T02:20:24;93518.81;;;16.30;97.66
15195;BME280;7698;42.478;23.756;2022-07-22T02:22:51;93512.88;;;16.23;98.08
15195;BME280;7698;42.478;23.756;2022-07-22T02:25:18;93518.00;;;16.19;98.48
15195;BME280;7698;42.478;23.756;2022-07-22T02:27:44;93516.09;;;16.15;99.01
15195;BME280;7698;42.478;23.756;2022-07-22T02:30:13;93513.69;;;16.13;99.18
15195;BME280;7698;42.478;23.756;2022-07-22T02:32:39;93501.81;;;16.14;99.61
15195;BME280;7698;42.478;23.756;2022-07-22T02:35:07;93504.78;;;16.18;99.92
15195;BME280;7698;42.478;23.756;2022-07-22T02:37:34;93504.78;;;16.23;99.96
15195;BME280;7698;42.478;23.756;2022-07-22T02:40:03;93509.09;;;16.24;99.45
15195;BME280;7698;42.478;23.756;2022-07-22T02:42:30;93516.09;;;16.15;97.83
15195;BME280;7698;42.478;23.756;2022-07-22T02:44:57;93512.34;;;16.06;98.34
15195;BME280;7698;42.478;23.756;2022-07-22T02:47:25;93512.59;;;15.99;98.89
15195;BME280;7698;42.478;23.756;2022-07-22T02:49:52;93513.38;;;15.89;99.31
15195;BME280;7698;42.478;23.756;2022-07-22T02:52:19;93510.41;;;15.81;100.00
15195;BME280;7698;42.478;23.756;2022-07-22T02:54:46;93509.59;;;15.75;100.00
15195;BME280;7698;42.478;23.756;2022-07-22T02:57:13;93517.13;;;15.73;100.00
15195;BME280;7698;42.478;23.756;2022-07-22T02:59:39;93510.13;;;15.72;100.00
15195;BME280;7698;42.478;23.756;2022-07-22T03:02:06;93507.69;;;15.71;100.00
15195;BME280;7698;42.478;23.756;2022-07-22T03:04:34;93517.66;;;15.75;100.00
15195;BME280;7698;42.478;23.756;2022-07-22T03:07:01;93514.16;;;15.75;100.00
15195;BME280;7698;42.478;23.756;2022-07-22T03:09:28;93513.91;;;15.76;100.00
15195;BME280;7698;42.478;23.756;2022-07-22T03:11:55;93517.94;;;15.79;100.00
15195;BME280;7698;42.478;23.756;2022-07-22T03:14:22;93505.84;;;15.81;100.00
15195;BME280;7698;42.478;23.756;2022-07-22T03:16:48;93513.38;;;15.79;100.00
15195;BME280;7698;42.478;23.756;2022-07-22T03:19:15;93513.38;;;15.79;100.00
15195;BME280;7698;42.478;23.756;2022-07-22T03:21:43;93513.38;;;15.79;100.00
15195;BME280;7698;42.478;23.756;2022-07-22T03:24:10;93521.44;;;15.79;100.00
15195;BME280;7698;42.478;23.756;2022-07-22T03:26:37;93507.47;;;15.82;100.00
15195;BME280;7698;42.478;23.756;2022-07-22T03:29:04;93510.69;;;15.84;100.00
15195;BME280;7698;42.478;23.756;2022-07-22T03:31:31;93509.88;;;15.84;100.00
15195;BME280;7698;42.478;23.756;2022-07-22T03:33:57;93515.00;;;15.85;100.00
15195;BME280;7698;42.478;23.756;2022-07-22T03:36:26;93521.47;;;15.84;100.00
15195;BME280;7698;42.478;23.756;2022-07-22T03:38:55;93517.16;;;15.83;100.00
15195;BME280;7698;42.478;23.756;2022-07-22T03:41:22;93520.91;;;15.82;100.00
15195;BME280;7698;42.478;23.756;2022-07-22T03:43:49;93522.00;;;15.81;100.00
15195;BME280;7698;42.478;23.756;2022-07-22T03:46:16;93510.69;;;15.84;100.00
15195;BME280;7698;42.478;23.756;2022-07-22T03:48:42;93517.94;;;15.89;100.00
15195;BME280;7698;42.478;23.756;2022-07-22T03:51:09;93513.91;;;15.91;100.00
15195;BME280;7698;42.478;23.756;2022-07-22T03:53:36;93516.34;;;15.98;100.00
15195;BME280;7698;42.478;23.756;2022-07-22T03:56:06;93526.59;;;16.06;100.00
15195;BME280;7698;42.478;23.756;2022-07-22T03:58:33;93527.94;;;16.14;100.00
15195;BME280;7698;42.478;23.756;2022-07-22T04:01:00;93521.75;;;16.18;100.00
15195;BME280;7698;42.478;23.756;2022-07-22T04:03:27;93532.28;;;16.25;100.00
15195;BME280;7698;42.478;23.756;2022-07-22T04:05:53;93522.03;;;16.32;100.00
15195;BME280;7698;42.478;23.756;2022-07-22T04:08:20;93529.06;;;16.38;100.00
15195;BME280;7698;42.478;23.756;2022-07-22T04:10:47;93529.84;;;16.44;100.00
15195;BME280;7698;42.478;23.756;2022-07-22T04:13:16;93525.81;;;16.51;100.00
15195;BME280;7698;42.478;23.756;2022-07-22T04:15:43;93526.13;;;16.65;100.00
15195;BME280;7698;42.478;23.756;2022-07-22T04:18:10;93523.09;;;16.87;100.00
15195;BME280;7698;42.478;23.756;2022-07-22T04:20:37;93524.13;;;17.11;100.00
15195;BME280;7698;42.478;23.756;2022-07-22T04:23:04;93527.28;;;17.39;98.34
15195;BME280;7698;42.478;23.756;2022-07-22T04:25:31;93526.66;;;17.67;96.45
15195;BME280;7698;42.478;23.756;2022-07-22T04:27:58;93525.16;;;17.90;94.12
15195;BME280;7698;42.478;23.756;2022-07-22T04:30:27;93539.06;;;18.12;92.85
15195;BME280;7698;42.478;23.756;2022-07-22T04:32:54;93533.88;;;18.26;89.95
15195;BME280;7698;42.478;23.756;2022-07-22T04:35:21;93536.44;;;18.41;88.67
15195;BME280;7698;42.478;23.756;2022-07-22T04:37:48;93536.31;;;18.62;87.58
15195;BME280;7698;42.478;23.756;2022-07-22T04:40:15;93530.75;;;18.82;85.99
15195;BME280;7698;42.478;23.756;2022-07-22T04:42:42;93532.69;;;19.05;85.45
15195;BME280;7698;42.478;23.756;2022-07-22T04:45:10;93542.94;;;19.32;83.60
15195;BME280;7698;42.478;23.756;2022-07-22T04:47:38;93532.19;;;19.51;82.46
15195;BME280;7698;42.478;23.756;2022-07-22T04:50:06;93540.00;;;19.76;81.45
15195;BME280;7698;42.478;23.756;2022-07-22T04:52:33;93541.34;;;19.98;80.00
15195;BME280;7698;42.478;23.756;2022-07-22T04:55:00;93544.75;;;20.27;78.75
15195;BME280;7698;42.478;23.756;2022-07-22T04:57:27;93542.06;;;20.46;77.35
15195;BME280;7698;42.478;23.756;2022-07-22T04:59:55;93546.56;;;20.69;75.61
15195;BME280;7698;42.478;23.756;2022-07-22T05:02:22;93547.63;;;20.87;74.06
15195;BME280;7698;42.478;23.756;2022-07-22T05:04:50;93543.88;;;21.15;73.09
15195;BME280;7698;42.478;23.756;2022-07-22T05:07:17;93553.03;;;21.52;72.01
15195;BME280;7698;42.478;23.756;2022-07-22T05:09:46;93548.19;;;21.76;69.90
15195;BME280;7698;42.478;23.756;2022-07-22T05:12:13;93555.63;;;21.98;68.15
15195;BME280;7698;42.478;23.756;2022-07-22T05:14:40;93559.34;;;22.16;67.17
15195;BME280;7698;42.478;23.756;2022-07-22T05:17:09;93559.84;;;22.32;67.25
15195;BME280;7698;42.478;23.756;2022-07-22T05:19:37;93561.78;;;22.53;66.95
15195;BME280;7698;42.478;23.756;2022-07-22T05:22:07;93563.38;;;22.68;65.20
15195;BME280;7698;42.478;23.756;2022-07-22T05:24:37;93566.44;;;22.89;63.40
15195;BME280;7698;42.478;23.756;2022-07-22T05:27:04;93566.53;;;23.06;64.10
15195;BME280;7698;42.478;23.756;2022-07-22T05:29:31;93564.47;;;23.34;63.92
15195;BME280;7698;42.478;23.756;2022-07-22T05:31:58;93567.09;;;23.70;63.25
15195;BME280;7698;42.478;23.756;2022-07-22T05:34:25;93571.81;;;23.95;61.19
15195;BME280;7698;42.478;23.756;2022-07-22T05:36:53;93574.28;;;24.14;61.16
15195;BME280;7698;42.478;23.756;2022-07-22T05:39:22;93565.50;;;24.35;60.18
15195;BME280;7698;42.478;23.756;2022-07-22T05:41:50;93573.38;;;24.36;59.86
15195;BME280;7698;42.478;23.756;2022-07-22T05:44:17;93576.78;;;24.50;60.04
15195;BME280;7698;42.478;23.756;2022-07-22T05:46:45;93578.25;;;24.74;59.36
15195;BME280;7698;42.478;23.756;2022-07-22T05:49:12;93578.13;;;24.87;59.52
15195;BME280;7698;42.478;23.756;2022-07-22T05:51:40;93584.41;;;25.14;59.13
15195;BME280;7698;42.478;23.756;2022-07-22T05:54:07;93575.84;;;25.41;57.59
15195;BME280;7698;42.478;23.756;2022-07-22T05:56:36;93576.97;;;25.40;57.70
15195;BME280;7698;42.478;23.756;2022-07-22T05:59:03;93567.72;;;25.62;58.20
15195;BME280;7698;42.478;23.756;2022-07-22T06:01:31;93574.59;;;25.85;57.18
15195;BME280;7698;42.478;23.756;2022-07-22T06:03:58;93583.81;;;26.10;56.40
15195;BME280;7698;42.478;23.756;2022-07-22T06:06:25;93589.06;;;26.24;55.47
15195;BME280;7698;42.478;23.756;2022-07-22T06:08:52;93585.66;;;26.27;55.41
15195;BME280;7698;42.478;23.756;2022-07-22T06:11:18;93588.13;;;26.20;54.88
15195;BME280;7698;42.478;23.756;2022-07-22T06:13:47;93590.56;;;26.13;55.49
15195;BME280;7698;42.478;23.756;2022-07-22T06:16:14;93591.81;;;26.24;55.41
15195;BME280;7698;42.478;23.756;2022-07-22T06:18:41;93593.41;;;26.25;54.49
15195;BME280;7698;42.478;23.756;2022-07-22T06:21:08;93592.25;;;26.26;55.09
15195;BME280;7698;42.478;23.756;2022-07-22T06:23:36;93592.59;;;26.54;54.90
15195;BME280;7698;42.478;23.756;2022-07-22T06:26:03;93594.72;;;26.78;54.85
15195;BME280;7698;42.478;23.756;2022-07-22T06:28:31;93598.22;;;27.08;54.70
15195;BME280;7698;42.478;23.756;2022-07-22T06:30:59;93591.63;;;27.42;53.90
15195;BME280;7698;42.478;23.756;2022-07-22T06:33:27;93591.97;;;27.73;52.39
15195;BME280;7698;42.478;23.756;2022-07-22T06:35:54;93590.88;;;27.86;51.09
15195;BME280;7698;42.478;23.756;2022-07-22T06:38:22;93585.38;;;27.98;51.20
15195;BME280;7698;42.478;23.756;2022-07-22T06:40:49;93591.56;;;28.08;50.71
15195;BME280;7698;42.478;23.756;2022-07-22T06:43:16;93581.72;;;28.19;50.88
15195;BME280;7698;42.478;23.756;2022-07-22T06:45:43;93587.72;;;28.33;50.24
15195;BME280;7698;42.478;23.756;2022-07-22T06:48:12;93589.66;;;28.57;50.01
15195;BME280;7698;42.478;23.756;2022-07-22T06:50:40;93593.53;;;28.68;49.59
15195;BME280;7698;42.478;23.756;2022-07-22T06:53:07;93588.72;;;28.89;49.65
15195;BME280;7698;42.478;23.756;2022-07-22T06:55:34;93589.22;;;29.07;48.50
15195;BME280;7698;42.478;23.756;2022-07-22T06:58:01;93591.75;;;29.12;48.14
15195;BME280;7698;42.478;23.756;2022-07-22T07:00:28;93590.25;;;29.15;47.53
15195;BME280;7698;42.478;23.756;2022-07-22T07:02:58;93598.53;;;29.43;47.59
15195;BME280;7698;42.478;23.756;2022-07-22T07:05:27;93591.06;;;29.71;47.06
15195;BME280;7698;42.478;23.756;2022-07-22T07:07:54;93596.78;;;29.94;46.96
15195;BME280;7698;42.478;23.756;2022-07-22T07:10:22;93597.91;;;30.21;46.09
15195;BME280;7698;42.478;23.756;2022-07-22T07:12:49;93602.88;;;30.31;44.67
15195;BME280;7698;42.478;23.756;2022-07-22T07:15:17;93605.25;;;30.64;44.76
15195;BME280;7698;42.478;23.756;2022-07-22T07:17:46;93609.09;;;31.10;43.63
15195;BME280;7698;42.478;23.756;2022-07-22T07:20:13;93606.25;;;31.42;42.65
15195;BME280;7698;42.478;23.756;2022-07-22T07:22:42;93609.78;;;31.81;41.49
15195;BME280;7698;42.478;23.756;2022-07-22T07:25:10;93606.03;;;32.12;40.40
15195;BME280;7698;42.478;23.756;2022-07-22T07:27:38;93609.31;;;32.40;39.12
15195;BME280;7698;42.478;23.756;2022-07-22T07:30:11;93616.63;;;32.75;38.87
15195;BME280;7698;42.478;23.756;2022-07-22T07:32:40;93608.34;;;33.01;37.66
15195;BME280;7698;42.478;23.756;2022-07-22T07:35:08;93613.34;;;33.22;37.28
15195;BME280;7698;42.478;23.756;2022-07-22T07:37:36;93624.69;;;33.40;36.73
15195;BME280;7698;42.478;23.756;2022-07-22T07:40:06;93613.88;;;33.57;36.40
15195;BME280;7698;42.478;23.756;2022-07-22T07:42:34;93626.22;;;33.67;36.25
15195;BME280;7698;42.478;23.756;2022-07-22T07:45:02;93624.44;;;33.78;35.52
15195;BME280;7698;42.478;23.756;2022-07-22T07:47:30;93628.09;;;33.86;35.24
15195;BME280;7698;42.478;23.756;2022-07-22T07:49:58;93622.22;;;33.94;35.27
15195;BME280;7698;42.478;23.756;2022-07-22T07:52:27;93629.22;;;34.18;34.89
15195;BME280;7698;42.478;23.756;2022-07-22T07:54:56;93623.03;;;34.32;34.60
15195;BME280;7698;42.478;23.756;2022-07-22T07:57:24;93628.59;;;34.32;33.81
15195;BME280;7698;42.478;23.756;2022-07-22T07:59:52;93631.03;;;34.37;34.17
15195;BME280;7698;42.478;23.756;2022-07-22T08:02:19;93625.19;;;34.49;33.84
15195;BME280;7698;42.478;23.756;2022-07-22T08:04:46;93639.56;;;34.62;33.92
15195;BME280;7698;42.478;23.756;2022-07-22T08:07:14;93636.91;;;34.76;32.85
15195;BME280;7698;42.478;23.756;2022-07-22T08:09:41;93633.44;;;34.86;33.02
15195;BME280;7698;42.478;23.756;2022-07-22T08:12:10;93639.72;;;34.80;32.20
15195;BME280;7698;42.478;23.756;2022-07-22T08:14:39;93637.44;;;34.89;32.79
15195;BME280;7698;42.478;23.756;2022-07-22T08:17:08;93643.19;;;35.17;33.42
15195;BME280;7698;42.478;23.756;2022-07-22T08:19:36;93638.47;;;35.21;32.96
15195;BME280;7698;42.478;23.756;2022-07-22T08:22:03;93640.09;;;35.29;32.80
15195;BME280;7698;42.478;23.756;2022-07-22T08:24:31;93641.00;;;35.44;32.80
15195;BME280;7698;42.478;23.756;2022-07-22T08:26:59;93640.66;;;35.53;32.38
15195;BME280;7698;42.478;23.756;2022-07-22T08:29:26;93643.06;;;35.54;32.21
15195;BME280;7698;42.478;23.756;2022-07-22T08:31:57;93646.63;;;35.62;32.43
15195;BME280;7698;42.478;23.756;2022-07-22T08:34:25;93643.13;;;35.72;32.63
15195;BME280;7698;42.478;23.756;2022-07-22T08:36:53;93644.38;;;35.78;32.14
15195;BME280;7698;42.478;23.756;2022-07-22T08:39:20;93653.13;;;35.80;32.15
15195;BME280;7698;42.478;23.756;2022-07-22T08:41:48;93656.69;;;35.84;31.96
15195;BME280;7698;42.478;23.756;2022-07-22T08:44:15;93659.53;;;35.95;31.52
15195;BME280;7698;42.478;23.756;2022-07-22T08:46:44;93658.34;;;36.00;31.74
15195;BME280;7698;42.478;23.756;2022-07-22T08:49:15;93659.56;;;36.06;30.76
15195;BME280;7698;42.478;23.756;2022-07-22T08:51:43;93659.97;;;36.11;31.00
15195;BME280;7698;42.478;23.756;2022-07-22T08:54:10;93670.34;;;36.21;31.42
15195;BME280;7698;42.478;23.756;2022-07-22T08:56:37;93664.03;;;36.39;31.19
15195;BME280;7698;42.478;23.756;2022-07-22T08:59:04;93668.84;;;36.52;31.06
15195;BME280;7698;42.478;23.756;2022-07-22T09:01:32;93664.50;;;36.58;30.94
15195;BME280;7698;42.478;23.756;2022-07-22T09:03:59;93669.66;;;36.71;31.19
15195;BME280;7698;42.478;23.756;2022-07-22T09:06:28;93676.06;;;36.82;30.45
15195;BME280;7698;42.478;23.756;2022-07-22T09:09:00;93673.69;;;36.73;28.93
15195;BME280;7698;42.478;23.756;2022-07-22T09:11:28;93670.84;;;36.52;30.28
15195;BME280;7698;42.478;23.756;2022-07-22T09:13:57;93674.81;;;36.47;30.12
15195;BME280;7698;42.478;23.756;2022-07-22T09:16:39;93672.41;;;36.46;29.30
15195;BME280;7698;42.478;23.756;2022-07-22T09:19:06;93679.97;;;36.45;29.79
15195;BME280;7698;42.478;23.756;2022-07-22T09:21:37;93670.03;;;36.48;30.02
15195;BME280;7698;42.478;23.756;2022-07-22T09:24:06;93678.81;;;36.71;30.68
15195;BME280;7698;42.478;23.756;2022-07-22T09:26:34;93677.25;;;36.95;29.94
15195;BME280;7698;42.478;23.756;2022-07-22T09:29:02;93670.91;;;36.84;28.81
15195;BME280;7698;42.478;23.756;2022-07-22T09:31:32;93671.25;;;36.57;30.03
15195;BME280;7698;42.478;23.756;2022-07-22T09:34:00;93675.63;;;36.58;29.71
15195;BME280;7698;42.478;23.756;2022-07-22T09:36:27;93679.59;;;36.54;29.78
15195;BME280;7698;42.478;23.756;2022-07-22T09:38:56;93678.78;;;36.53;28.53
15195;BME280;7698;42.478;23.756;2022-07-22T09:41:23;93674.41;;;36.49;29.70
15195;BME280;7698;42.478;23.756;2022-07-22T09:43:50;93680.41;;;36.61;30.12
15195;BME280;7698;42.478;23.756;2022-07-22T09:46:33;93678.81;;;36.60;28.65
15195;BME280;7698;42.478;23.756;2022-07-22T09:49:01;93674.03;;;36.54;29.10
15195;BME280;7698;42.478;23.756;2022-07-22T09:51:29;93675.22;;;36.71;28.94
15195;BME280;7698;42.478;23.756;2022-07-22T09:53:58;93663.75;;;36.83;29.12
15195;BME280;7698;42.478;23.756;2022-07-22T09:56:26;93673.69;;;37.12;28.28
15195;BME280;7698;42.478;23.756;2022-07-22T09:58:55;93664.56;;;37.30;28.02
15195;BME280;7698;42.478;23.756;2022-07-22T10:01:23;93671.66;;;37.55;28.70
15195;BME280;7698;42.478;23.756;2022-07-22T10:03:53;93670.88;;;37.66;28.29
15195;BME280;7698;42.478;23.756;2022-07-22T10:06:22;93669.69;;;37.67;28.26
15195;BME280;7698;42.478;23.756;2022-07-22T10:08:50;93666.88;;;37.56;28.09
15195;BME280;7698;42.478;23.756;2022-07-22T10:11:19;93674.06;;;37.53;27.93
15195;BME280;7698;42.478;23.756;2022-07-22T10:13:47;93666.13;;;37.38;27.50
15195;BME280;7698;42.478;23.756;2022-07-22T10:16:15;93658.19;;;37.33;29.03
15195;BME280;7698;42.478;23.756;2022-07-22T10:18:44;93666.94;;;37.38;28.90
15195;BME280;7698;42.478;23.756;2022-07-22T10:21:12;93657.38;;;37.43;28.67
15195;BME280;7698;42.478;23.756;2022-07-22T10:24:07;93664.94;;;37.39;27.61
15195;BME280;7698;42.478;23.756;2022-07-22T10:26:51;93670.09;;;37.01;27.61
15195;BME280;7698;42.478;23.756;2022-07-22T10:29:28;93667.66;;;36.68;27.91
15195;BME280;7698;42.478;23.756;2022-07-22T10:32:22;93662.91;;;36.57;28.41
15195;BME280;7698;42.478;23.756;2022-07-22T10:35:24;93666.06;;;36.67;28.91
15195;BME280;7698;42.478;23.756;2022-07-22T10:37:53;93670.44;;;36.68;28.67
15195;BME280;7698;42.478;23.756;2022-07-22T10:40:22;93662.94;;;36.79;28.91
15195;BME280;7698;42.478;23.756;2022-07-22T10:43:09;93654.19;;;36.98;28.79
15195;BME280;7698;42.478;23.756;2022-07-22T10:45:39;93648.25;;;37.10;28.97
15195;BME280;7698;42.478;23.756;2022-07-22T10:48:07;93649.03;;;37.21;29.11
15195;BME280;7698;42.478;23.756;2022-07-22T10:50:50;93663.75;;;37.40;28.65
15195;BME280;7698;42.478;23.756;2022-07-22T10:53:20;93654.19;;;37.41;27.09
15195;BME280;7698;42.478;23.756;2022-07-22T10:56:04;93655.00;;;37.23;28.27
15195;BME280;7698;42.478;23.756;2022-07-22T10:58:47;93645.44;;;37.17;28.08
15195;BME280;7698;42.478;23.756;2022-07-22T11:01:18;93658.19;;;37.25;28.06
15195;BME280;7698;42.478;23.756;2022-07-22T11:03:46;93649.81;;;37.29;26.46
15195;BME280;7698;42.478;23.756;2022-07-22T11:06:22;93648.22;;;37.35;26.68
15195;BME280;7698;42.478;23.756;2022-07-22T11:08:52;93649.41;;;37.41;26.69
15195;BME280;7698;42.478;23.756;2022-07-22T11:11:32;93656.19;;;37.22;26.43
15195;BME280;7698;42.478;23.756;2022-07-22T11:14:00;93669.31;;;37.11;26.78
15195;BME280;7698;42.478;23.756;2022-07-22T11:16:28;93648.22;;;36.96;26.04
15195;BME280;7698;42.478;23.756;2022-07-22T11:18:56;93647.84;;;36.90;26.88
15195;BME280;7698;42.478;23.756;2022-07-22T11:21:25;93651.00;;;36.96;26.38
15195;BME280;7698;42.478;23.756;2022-07-22T11:23:56;93643.47;;;36.86;26.63
15195;BME280;7698;42.478;23.756;2022-07-22T11:26:26;93643.84;;;36.95;27.54
15195;BME280;7698;42.478;23.756;2022-07-22T11:29:00;93639.47;;;36.94;26.23
15195;BME280;7698;42.478;23.756;2022-07-22T11:31:28;93640.31;;;36.91;26.72
15195;BME280;7698;42.478;23.756;2022-07-22T11:34:05;93641.88;;;36.85;26.25
15195;BME280;7698;42.478;23.756;2022-07-22T11:36:33;93642.25;;;36.73;25.18
15195;BME280;7698;42.478;23.756;2022-07-22T11:39:00;93640.69;;;36.79;25.76
15195;BME280;7698;42.478;23.756;2022-07-22T11:41:29;93640.69;;;36.86;25.44
15195;BME280;7698;42.478;23.756;2022-07-22T11:43:56;93647.44;;;36.85;25.64
15195;BME280;7698;42.478;23.756;2022-07-22T11:46:25;93647.84;;;36.90;25.48
15195;BME280;7698;42.478;23.756;2022-07-22T11:48:52;93647.44;;;36.99;25.48
15195;BME280;7698;42.478;23.756;2022-07-22T11:51:20;93640.28;;;37.12;25.15
15195;BME280;7698;42.478;23.756;2022-07-22T11:53:47;93637.50;;;37.12;24.73
15195;BME280;7698;42.478;23.756;2022-07-22T11:56:14;93648.22;;;37.03;25.29
15195;BME280;7698;42.478;23.756;2022-07-22T11:58:42;93648.63;;;37.05;26.39
15195;BME280;7698;42.478;23.756;2022-07-22T12:01:12;93646.25;;;37.14;25.66
15195;BME280;7698;42.478;23.756;2022-07-22T12:03:44;93641.47;;;37.04;24.63
15195;BME280;7698;42.478;23.756;2022-07-22T12:06:14;93643.84;;;36.95;25.03
15195;BME280;7698;42.478;23.756;2022-07-22T12:08:43;93645.06;;;36.87;24.25
15195;BME280;7698;42.478;23.756;2022-07-22T12:11:12;93643.88;;;36.84;23.88
15195;BME280;7698;42.478;23.756;2022-07-22T12:13:41;93644.63;;;36.67;23.66
15195;BME280;7698;42.478;23.756;2022-07-22T12:16:20;93635.88;;;36.61;23.76
15195;BME280;7698;42.478;23.756;2022-07-22T12:18:57;93642.63;;;36.60;24.67
15195;BME280;7698;42.478;23.756;2022-07-22T12:21:26;93619.59;;;36.60;25.04
15195;BME280;7698;42.478;23.756;2022-07-22T12:23:56;93630.31;;;36.65;26.04
15195;BME280;7698;42.478;23.756;2022-07-22T12:26:40;93627.94;;;36.56;26.29
15195;BME280;7698;42.478;23.756;2022-07-22T12:29:22;93616.78;;;36.71;27.36
15195;BME280;7698;42.478;23.756;2022-07-22T12:31:51;93625.53;;;36.55;25.90
15195;BME280;7698;42.478;23.756;2022-07-22T12:34:36;93627.94;;;36.60;26.40
15195;BME280;7698;42.478;23.756;2022-07-22T12:37:15;93623.94;;;36.72;25.84
15195;BME280;7698;42.478;23.756;2022-07-22T12:39:55;93627.16;;;36.77;25.67
15195;BME280;7698;42.478;23.756;2022-07-22T12:42:23;93623.53;;;36.66;24.83
15195;BME280;7698;42.478;23.756;2022-07-22T12:44:51;93616.78;;;36.53;25.31
15195;BME280;7698;42.478;23.756;2022-07-22T12:47:44;93614.38;;;36.26;25.11
15195;BME280;7698;42.478;23.756;2022-07-22T12:50:18;93615.09;;;36.16;26.51
15195;BME280;7698;42.478;23.756;2022-07-22T12:52:45;93617.16;;;36.30;27.11
15195;BME280;7698;42.478;23.756;2022-07-22T12:55:12;93616.38;;;36.30;26.98
15195;BME280;7698;42.478;23.756;2022-07-22T12:57:39;93621.16;;;36.47;28.20
15195;BME280;7698;42.478;23.756;2022-07-22T13:00:07;93608.84;;;36.55;27.10
15195;BME280;7698;42.478;23.756;2022-07-22T13:02:35;93610.44;;;36.59;26.94
15195;BME280;7698;42.478;23.756;2022-07-22T13:05:02;93606.03;;;36.41;26.45
15195;BME280;7698;42.478;23.756;2022-07-22T13:07:32;93608.34;;;36.14;26.48